createdAt,value
2022-11-01T00:05:18.315Z,13.09
2022-11-01T00:10:40.099Z,13.02
2022-11-01T00:16:01.931Z,13.19
2022-11-01T00:21:24.051Z,13.29
2022-11-01T00:26:45.991Z,13.36
2022-11-01T00:32:08.922Z,13.32
2022-11-01T00:37:30.657Z,13.16
2022-11-01T00:42:52.524Z,13.04
2022-11-01T00:48:14.232Z,12.90
2022-11-01T00:53:36.086Z,12.79
2022-11-01T00:58:57.823Z,12.95
2022-11-01T01:04:19.656Z,12.99
2022-11-01T01:09:41.397Z,12.85
2022-11-01T01:15:03.889Z,12.75
2022-11-01T01:20:25.871Z,12.49
2022-11-01T01:25:47.599Z,12.68
2022-11-01T01:31:10.255Z,12.88
2022-11-01T01:36:31.963Z,12.96
2022-11-01T01:41:56.830Z,12.99
2022-11-01T01:47:26.208Z,13.01
2022-11-01T01:53:05.897Z,13.04
2022-11-01T01:58:31.522Z,13.02
2022-11-01T02:03:53.319Z,12.97
2022-11-01T02:09:16.085Z,13.00
2022-11-01T02:14:39.722Z,13.02
2022-11-01T02:20:17.826Z,13.13
2022-11-01T02:26:10.572Z,13.26
2022-11-01T02:31:50.823Z,13.22
2022-11-01T02:37:42.437Z,13.23
2022-11-01T02:43:12.991Z,13.32
2022-11-01T02:48:35.102Z,13.36
2022-11-01T02:54:00.984Z,13.28
2022-11-01T02:59:28.332Z,13.14
2022-11-01T03:04:50.597Z,13.26
2022-11-01T03:10:13.017Z,13.33
2022-11-01T03:15:42.328Z,13.32
2022-11-01T03:21:17.152Z,13.35
2022-11-01T03:26:40.973Z,13.43
2022-11-01T03:32:04.750Z,13.39
2022-11-01T03:37:28.837Z,13.32
2022-11-01T03:42:54.602Z,13.30
2022-11-01T03:48:16.297Z,13.27
2022-11-01T03:53:37.971Z,13.28
2022-11-01T03:58:59.819Z,13.43
2022-11-01T04:04:21.559Z,13.55
2022-11-01T04:09:43.234Z,13.57
2022-11-01T04:15:24.449Z,13.53
2022-11-01T04:20:46.246Z,13.60
2022-11-01T04:26:11.845Z,13.75
2022-11-01T04:31:35.905Z,13.74
2022-11-01T04:36:57.572Z,13.66
2022-11-01T04:42:19.262Z,13.72
2022-11-01T04:47:50.763Z,13.70
2022-11-01T04:53:12.965Z,13.65
2022-11-01T04:58:39.969Z,13.70
2022-11-01T05:04:04.926Z,13.93
2022-11-01T05:09:26.605Z,14.07
2022-11-01T05:14:50.788Z,14.34
2022-11-01T05:20:16.184Z,14.55
2022-11-01T05:25:38.399Z,14.68
2022-11-01T05:31:00.251Z,14.87
2022-11-01T05:36:21.942Z,14.99
2022-11-01T05:41:43.715Z,15.02
2022-11-01T05:47:05.567Z,15.15
2022-11-01T05:52:27.265Z,14.96
2022-11-01T06:03:15.506Z,14.82
2022-11-01T06:08:37.233Z,14.82
2022-11-01T06:13:59.312Z,14.74
2022-11-01T06:19:21.041Z,14.77
2022-11-01T06:24:42.802Z,14.84
2022-11-01T06:30:05.406Z,14.79
2022-11-01T06:35:27.990Z,14.73
2022-11-01T06:40:49.662Z,14.71
2022-11-01T06:46:11.359Z,14.67
2022-11-01T06:51:33.021Z,14.76
2022-11-01T06:56:54.696Z,14.79
2022-11-01T07:02:19.506Z,14.79
2022-11-01T07:07:42.025Z,14.83
2022-11-01T07:13:05.827Z,14.89
2022-11-01T07:18:29.859Z,14.83
2022-11-01T07:23:53.976Z,14.81
2022-11-01T07:29:15.682Z,14.81
2022-11-01T07:34:37.333Z,14.85
2022-11-01T07:40:01.043Z,14.87
2022-11-01T07:45:22.885Z,14.89
2022-11-01T07:50:45.527Z,14.85
2022-11-01T07:56:07.887Z,14.85
2022-11-01T08:01:30.811Z,14.95
2022-11-01T08:06:52.589Z,14.92
2022-11-01T08:12:14.362Z,14.95
2022-11-01T08:17:36.219Z,15.09
2022-11-01T08:22:58.022Z,15.24
2022-11-01T08:28:20.870Z,15.44
2022-11-01T08:33:42.642Z,15.36
2022-11-01T08:39:04.391Z,15.38
2022-11-01T08:44:26.196Z,15.48
2022-11-01T08:49:47.893Z,15.49
2022-11-01T08:55:11.197Z,15.48
2022-11-01T09:00:32.913Z,15.51
2022-11-01T09:05:57.132Z,15.50
2022-11-01T09:11:20.561Z,15.55
2022-11-01T09:16:42.242Z,15.56
2022-11-01T09:22:03.966Z,15.57
2022-11-01T09:27:25.672Z,15.71
2022-11-01T09:32:47.351Z,15.76
2022-11-01T09:38:09.035Z,15.87
2022-11-01T09:43:35.035Z,15.92
2022-11-01T09:48:59.604Z,15.97
2022-11-01T09:54:24.093Z,16.11
2022-11-01T10:00:13.258Z,16.10
2022-11-01T10:05:52.295Z,16.10
2022-11-01T10:11:37.068Z,16.27
2022-11-01T10:17:19.840Z,16.26
2022-11-01T10:22:47.474Z,16.28
2022-11-01T10:28:19.052Z,16.31
2022-11-01T10:33:47.706Z,16.29
2022-11-01T10:39:54.345Z,16.35
2022-11-01T10:45:16.788Z,16.37
2022-11-01T10:50:38.902Z,16.39
2022-11-01T10:56:05.847Z,16.49
2022-11-01T11:01:31.536Z,16.52
2022-11-01T11:06:53.466Z,16.51
2022-11-01T11:12:19.062Z,16.51
2022-11-01T11:17:44.841Z,16.49
2022-11-01T11:23:10.511Z,16.51
2022-11-01T11:28:35.509Z,16.55
2022-11-01T11:34:02.064Z,16.54
2022-11-01T11:39:35.606Z,16.53
2022-11-01T11:45:15.462Z,16.59
2022-11-01T11:50:38.104Z,16.60
2022-11-01T11:56:02.901Z,16.60
2022-11-01T12:01:28.628Z,16.61
2022-11-01T12:06:50.472Z,16.63
2022-11-01T12:12:17.997Z,16.62
2022-11-01T12:17:46.801Z,16.63
2022-11-01T12:23:26.989Z,16.64
2022-11-01T12:28:58.505Z,16.62
2022-11-01T12:34:31.235Z,16.53
2022-11-01T12:40:18.570Z,16.33
2022-11-01T12:45:57.040Z,16.27
2022-11-01T12:51:26.089Z,16.25
2022-11-01T12:56:47.830Z,16.15
2022-11-01T13:02:28.443Z,16.04
2022-11-01T13:08:02.760Z,16.01
2022-11-01T13:13:24.429Z,15.99
2022-11-01T13:18:58.220Z,16.01
2022-11-01T13:24:39.504Z,15.98
2022-11-01T13:30:01.139Z,15.95
2022-11-01T13:35:43.281Z,15.94
2022-11-01T13:41:22.285Z,15.94
2022-11-01T13:47:11.623Z,15.96
2022-11-01T13:52:35.981Z,16.00
2022-11-01T13:57:58.523Z,15.90
2022-11-01T14:03:26.649Z,15.89
2022-11-01T14:08:49.295Z,15.93
2022-11-01T14:14:29.462Z,15.92
2022-11-01T14:19:56.885Z,15.79
2022-11-01T14:30:49.354Z,15.76
2022-11-01T14:36:13.009Z,15.76
2022-11-01T14:41:40.642Z,15.80
2022-11-01T14:47:13.963Z,15.86
2022-11-01T14:52:45.545Z,15.89
2022-11-01T14:58:08.916Z,15.78
2022-11-01T15:03:30.624Z,15.68
2022-11-01T15:08:58.011Z,15.56
2022-11-01T15:14:34.067Z,15.43
2022-11-01T15:19:58.495Z,15.54
2022-11-01T15:25:23.389Z,15.37
2022-11-01T15:30:55.192Z,15.32
2022-11-01T15:36:23.381Z,15.34
2022-11-01T15:41:46.229Z,15.35
2022-11-01T15:47:20.475Z,15.47
2022-11-01T15:52:45.788Z,15.41
2022-11-01T15:58:10.310Z,15.28
2022-11-01T16:03:40.099Z,15.21
2022-11-01T16:09:16.197Z,14.94
2022-11-01T16:14:38.207Z,14.87
2022-11-01T16:20:04.505Z,14.81
2022-11-01T16:25:28.940Z,14.69
2022-11-01T16:30:53.021Z,14.64
2022-11-01T16:36:17.781Z,14.53
2022-11-01T16:41:41.011Z,14.39
2022-11-01T16:47:05.626Z,14.40
2022-11-01T16:52:27.318Z,14.35
2022-11-01T16:57:49.008Z,14.37
2022-11-01T17:03:10.686Z,14.23
2022-11-01T17:08:33.649Z,14.22
2022-11-01T17:13:55.351Z,14.17
2022-11-01T17:19:25.110Z,14.20
2022-11-01T17:24:47.363Z,14.18
2022-11-01T17:30:09.508Z,14.09
2022-11-01T17:35:33.238Z,14.12
2022-11-01T17:40:56.725Z,14.04
2022-11-01T17:46:21.794Z,14.07
2022-11-01T17:51:43.868Z,14.02
2022-11-01T17:57:05.579Z,14.06
2022-11-01T18:02:27.511Z,13.78
2022-11-01T18:07:50.594Z,13.86
2022-11-01T18:13:37.272Z,13.81
2022-11-01T18:19:03.934Z,13.69
2022-11-01T18:24:41.017Z,13.52
2022-11-01T18:30:12.946Z,13.43
2022-11-01T18:35:41.320Z,13.28
2022-11-01T18:41:05.462Z,13.33
2022-11-01T18:46:39.701Z,13.34
2022-11-01T18:52:01.789Z,13.43
2022-11-01T18:57:24.489Z,13.49
2022-11-01T19:02:46.223Z,13.42
2022-11-01T19:08:22.259Z,13.41
2022-11-01T19:13:45.070Z,13.30
2022-11-01T19:19:14.940Z,12.96
2022-11-01T19:24:38.465Z,12.97
2022-11-01T19:30:00.252Z,12.97
2022-11-01T19:35:22.831Z,12.97
2022-11-01T19:40:44.663Z,12.81
2022-11-01T19:46:13.463Z,12.69
2022-11-01T19:51:35.413Z,12.54
2022-11-01T19:56:59.439Z,12.72
2022-11-01T20:02:23.083Z,12.78
2022-11-01T20:07:44.907Z,12.84
2022-11-01T20:13:06.867Z,12.83
2022-11-01T20:18:28.746Z,12.76
2022-11-01T20:23:50.719Z,12.65
2022-11-01T20:29:12.615Z,12.60
2022-11-01T20:34:34.355Z,12.63
2022-11-01T20:39:56.779Z,12.57
2022-11-01T20:45:18.802Z,12.54
2022-11-01T20:50:40.612Z,12.53
2022-11-01T20:56:03.786Z,12.49
2022-11-01T21:01:28.078Z,12.44
2022-11-01T21:06:58.849Z,12.32
2022-11-01T21:12:39.290Z,12.30
2022-11-01T21:18:07.201Z,12.34
2022-11-01T21:24:11.836Z,12.18
2022-11-01T21:29:47.036Z,12.01
2022-11-01T21:35:20.703Z,11.83
2022-11-01T21:40:45.040Z,11.67
2022-11-01T21:46:15.755Z,11.68
2022-11-01T21:51:37.582Z,11.74
2022-11-01T21:56:59.952Z,11.54
2022-11-01T22:02:21.899Z,11.46
2022-11-01T22:07:43.908Z,11.23
2022-11-01T22:13:06.926Z,11.30
2022-11-01T22:18:28.958Z,11.28
2022-11-01T22:23:50.838Z,11.30
2022-11-01T22:29:12.543Z,11.25
2022-11-01T22:34:34.260Z,11.14
2022-11-01T22:39:55.940Z,11.23
2022-11-01T22:45:18.476Z,11.09
2022-11-01T22:50:40.231Z,11.25
2022-11-01T22:56:02.093Z,11.01
2022-11-01T23:01:27.986Z,11.18
2022-11-01T23:06:53.946Z,11.36
2022-11-01T23:12:42.434Z,11.45
2022-11-01T23:18:12.969Z,11.07
2022-11-01T23:23:41.750Z,10.64
2022-11-01T23:29:03.449Z,10.63
2022-11-01T23:34:25.605Z,10.82
2022-11-01T23:39:47.371Z,10.84
2022-11-01T23:45:33.888Z,10.95
2022-11-01T23:50:56.508Z,10.61
2022-11-01T23:56:19.846Z,10.59
